createdAt,value
2022-11-02T00:02:07.368Z,91.91
2022-11-02T00:04:52.475Z,92.13
2022-11-02T00:07:37.670Z,92.62
2022-11-02T00:10:24.259Z,92.84
2022-11-02T00:13:09.884Z,93.08
2022-11-02T00:15:55.457Z,93.95
2022-11-02T00:18:42.906Z,93.98
2022-11-02T00:21:28.473Z,93.55
2022-11-02T00:24:14.044Z,93.93
2022-11-02T00:26:59.461Z,93.65
2022-11-02T00:29:44.918Z,93.85
2022-11-02T00:32:30.384Z,93.40
2022-11-02T00:35:15.876Z,93.86
2022-11-02T00:38:01.419Z,93.23
2022-11-02T00:40:46.798Z,93.20
2022-11-02T00:43:32.058Z,93.31
2022-11-02T00:46:17.057Z,93.45
2022-11-02T00:49:02.497Z,93.38
2022-11-02T00:51:47.529Z,92.99
2022-11-02T00:54:34.463Z,92.92
2022-11-02T00:57:20.005Z,92.85
2022-11-02T01:00:07.625Z,93.10
2022-11-02T01:02:52.980Z,92.60
2022-11-02T01:05:38.699Z,92.93
2022-11-02T01:08:23.913Z,93.56
2022-11-02T01:11:19.225Z,92.78
2022-11-02T01:14:04.736Z,93.64
2022-11-02T01:16:50.212Z,92.16
2022-11-02T01:19:37.310Z,92.04
2022-11-02T01:22:22.425Z,91.71
2022-11-02T01:25:08.154Z,92.56
2022-11-02T01:27:53.600Z,91.98
2022-11-02T01:30:39.147Z,91.67
2022-11-02T01:33:25.695Z,91.39
2022-11-02T01:36:14.391Z,92.07
2022-11-02T01:38:59.870Z,91.01
2022-11-02T01:41:51.394Z,90.11
2022-11-02T01:44:36.583Z,89.75
2022-11-02T01:47:32.885Z,90.18
2022-11-02T01:50:23.771Z,90.09
2022-11-02T01:53:09.251Z,90.50
2022-11-02T01:55:54.943Z,90.15
2022-11-02T01:58:41.540Z,93.25
2022-11-02T02:01:27.436Z,90.53
2022-11-02T02:04:13.640Z,89.91
2022-11-02T02:06:59.326Z,89.65
2022-11-02T02:09:48.687Z,89.42
2022-11-02T02:12:39.654Z,89.91
2022-11-02T02:15:32.408Z,89.51
2022-11-02T02:18:28.433Z,89.59
2022-11-02T02:21:41.844Z,91.07
2022-11-02T02:24:42.303Z,90.56
2022-11-02T02:27:42.813Z,89.14
2022-11-02T02:30:32.347Z,88.69
2022-11-02T02:33:35.129Z,90.00
2022-11-02T02:36:27.982Z,88.92
2022-11-02T02:39:20.889Z,88.11
2022-11-02T02:42:21.401Z,88.01
2022-11-02T02:45:20.481Z,88.38
2022-11-02T02:48:27.224Z,87.42
2022-11-02T02:51:19.592Z,88.63
2022-11-02T02:54:10.307Z,88.99
2022-11-02T02:57:00.853Z,87.66
2022-11-02T02:59:50.493Z,87.67
2022-11-02T03:02:40.139Z,86.77
2022-11-02T03:05:32.497Z,86.83
2022-11-02T03:08:18.509Z,86.32
2022-11-02T03:11:15.908Z,86.48
2022-11-02T03:14:26.115Z,86.16
2022-11-02T03:17:19.698Z,86.30
2022-11-02T03:20:21.252Z,86.52
2022-11-02T03:23:20.553Z,86.29
2022-11-02T03:26:17.570Z,86.56
2022-11-02T03:29:10.243Z,86.82
2022-11-02T03:32:03.083Z,86.85
2022-11-02T03:34:55.241Z,86.81
2022-11-02T03:37:49.241Z,86.04
2022-11-02T03:40:47.166Z,86.66
2022-11-02T03:43:37.756Z,86.49
2022-11-02T03:46:24.030Z,86.54
2022-11-02T03:49:15.402Z,86.55
2022-11-02T03:52:07.863Z,87.04
2022-11-02T03:55:02.650Z,86.81
2022-11-02T03:57:51.694Z,85.75
2022-11-02T04:00:54.105Z,85.68
2022-11-02T04:03:43.324Z,85.29
2022-11-02T04:06:28.762Z,85.15
2022-11-02T04:09:14.237Z,84.84
2022-11-02T04:12:18.807Z,84.93
2022-11-02T04:15:04.375Z,85.13
2022-11-02T04:18:08.462Z,84.65
2022-11-02T04:20:53.519Z,84.93
2022-11-02T04:23:57.317Z,85.01
2022-11-02T04:26:42.809Z,84.67
2022-11-02T04:29:28.220Z,84.72
2022-11-02T04:32:13.689Z,84.29
2022-11-02T04:34:58.837Z,84.68
2022-11-02T04:38:03.453Z,84.73
2022-11-02T04:41:13.891Z,84.34
2022-11-02T04:44:00.112Z,84.44
2022-11-02T04:46:45.660Z,84.32
2022-11-02T04:49:39.808Z,84.26
2022-11-02T04:52:29.957Z,84.78
2022-11-02T04:55:16.262Z,84.70
2022-11-02T04:58:01.816Z,84.77
2022-11-02T05:00:47.282Z,84.86
2022-11-02T05:03:32.664Z,84.58
2022-11-02T05:06:20.100Z,85.21
2022-11-02T05:09:06.775Z,85.26
2022-11-02T05:11:52.675Z,85.10
2022-11-02T05:14:38.139Z,85.30
2022-11-02T05:17:23.241Z,85.09
2022-11-02T05:20:09.249Z,85.18
2022-11-02T05:22:54.507Z,85.48
2022-11-02T05:25:42.237Z,85.13
2022-11-02T05:28:28.825Z,85.20
2022-11-02T05:31:15.269Z,85.28
2022-11-02T05:34:01.678Z,84.95
2022-11-02T05:36:50.325Z,84.91
2022-11-02T05:39:37.111Z,85.07
2022-11-02T05:42:23.058Z,85.40
2022-11-02T05:45:08.783Z,85.11
2022-11-02T05:47:54.172Z,85.15
2022-11-02T05:50:39.544Z,84.88
2022-11-02T05:53:25.528Z,84.75
2022-11-02T05:56:11.819Z,85.04
2022-11-02T05:58:57.352Z,85.35
2022-11-02T06:01:42.665Z,85.00
2022-11-02T06:04:27.833Z,84.93
2022-11-02T06:07:13.355Z,85.08
2022-11-02T06:09:58.899Z,84.57
2022-11-02T06:12:44.585Z,84.57
2022-11-02T06:15:31.696Z,84.87
2022-11-02T06:18:16.814Z,84.60
2022-11-02T06:21:02.332Z,84.74
2022-11-02T06:23:48.444Z,84.60
2022-11-02T06:26:33.582Z,84.08
2022-11-02T06:29:19.064Z,83.88
2022-11-02T06:32:04.451Z,83.40
2022-11-02T06:34:49.721Z,83.20
2022-11-02T06:37:35.377Z,83.18
2022-11-02T06:40:22.777Z,83.38
2022-11-02T06:43:16.399Z,83.90
2022-11-02T06:46:02.668Z,84.11
2022-11-02T06:48:48.343Z,83.83
2022-11-02T06:51:33.603Z,83.79
2022-11-02T06:54:19.225Z,83.86
2022-11-02T06:57:04.344Z,84.05
2022-11-02T06:59:53.814Z,83.73
2022-11-02T07:02:40.327Z,83.78
2022-11-02T07:05:25.403Z,82.81
2022-11-02T07:08:10.765Z,83.54
2022-11-02T07:10:56.706Z,83.22
2022-11-02T07:13:42.832Z,82.93
2022-11-02T07:16:30.422Z,83.13
2022-11-02T07:19:15.443Z,82.22
2022-11-02T07:22:00.924Z,82.08
2022-11-02T07:24:46.454Z,81.49
2022-11-02T07:27:31.809Z,81.70
2022-11-02T07:30:17.317Z,80.94
2022-11-02T07:33:03.292Z,81.23
2022-11-02T07:35:48.685Z,80.51
2022-11-02T07:38:34.042Z,80.34
2022-11-02T07:41:19.094Z,79.81
2022-11-02T07:44:04.901Z,79.80
2022-11-02T07:47:13.520Z,78.96
2022-11-02T07:49:59.550Z,78.06
2022-11-02T07:52:45.909Z,77.20
2022-11-02T07:55:32.169Z,76.66
2022-11-02T07:58:17.660Z,76.20
2022-11-02T08:01:03.754Z,75.58
2022-11-02T08:03:49.781Z,74.99
2022-11-02T08:06:35.753Z,74.35
2022-11-02T08:09:22.917Z,73.98
2022-11-02T08:12:08.179Z,85.59
2022-11-02T08:14:53.661Z,78.48
2022-11-02T08:17:38.875Z,77.17
2022-11-02T08:20:24.150Z,75.46
2022-11-02T08:23:10.840Z,76.03
2022-11-02T08:25:59.194Z,75.15
2022-11-02T08:28:44.668Z,73.58
2022-11-02T08:31:29.906Z,73.33
2022-11-02T08:34:15.071Z,73.16
2022-11-02T08:37:00.612Z,73.81
2022-11-02T08:39:46.180Z,73.89
2022-11-02T08:42:31.515Z,73.87
2022-11-02T08:45:17.341Z,77.37
2022-11-02T08:48:03.147Z,91.41
2022-11-02T08:50:48.880Z,82.65
2022-11-02T08:53:34.668Z,78.79
2022-11-02T08:56:19.920Z,78.17
2022-11-02T08:59:05.260Z,78.84
2022-11-02T09:01:50.402Z,77.84
2022-11-02T09:04:35.764Z,77.83
2022-11-02T09:07:21.265Z,78.80
2022-11-02T09:10:07.580Z,76.21
2022-11-02T09:12:52.971Z,82.07
2022-11-02T09:15:38.567Z,78.01
2022-11-02T09:18:24.163Z,75.36
2022-11-02T09:21:09.601Z,74.25
2022-11-02T09:23:54.790Z,73.44
2022-11-02T09:26:40.392Z,72.33
2022-11-02T09:29:25.842Z,72.43
2022-11-02T09:32:11.427Z,71.87
2022-11-02T09:34:56.960Z,71.93
2022-11-02T09:37:49.903Z,71.45
2022-11-02T09:40:50.000Z,70.64
2022-11-02T09:43:44.667Z,70.77
2022-11-02T09:46:42.727Z,69.99
2022-11-02T09:49:30.323Z,69.18
2022-11-02T09:52:38.300Z,69.26
2022-11-02T09:55:28.716Z,69.33
2022-11-02T09:58:19.921Z,68.39
2022-11-02T10:01:21.094Z,67.53
2022-11-02T10:04:09.492Z,67.06
2022-11-02T10:07:06.814Z,66.63
2022-11-02T10:09:58.311Z,66.08
2022-11-02T10:12:46.479Z,65.96
2022-11-02T10:20:43.103Z,64.22
2022-11-02T10:23:44.562Z,63.40
2022-11-02T10:26:34.472Z,62.94
2022-11-02T10:29:28.949Z,62.85
2022-11-02T10:32:16.076Z,62.46
2022-11-02T10:35:25.318Z,62.33
2022-11-02T10:38:20.004Z,61.72
2022-11-02T10:41:32.549Z,61.40
2022-11-02T10:44:30.161Z,61.54
2022-11-02T10:47:18.812Z,60.60
2022-11-02T10:50:23.940Z,60.50
2022-11-02T10:53:39.442Z,59.42
2022-11-02T10:56:19.815Z,58.93
2022-11-02T10:59:20.228Z,58.33
2022-11-02T11:02:12.193Z,58.57
2022-11-02T11:05:11.723Z,57.99
2022-11-02T11:07:57.378Z,58.38
2022-11-02T11:10:44.118Z,57.19
2022-11-02T11:16:40.280Z,56.57
2022-11-02T11:19:51.016Z,56.74
2022-11-02T11:22:39.823Z,56.91
2022-11-02T11:25:27.925Z,57.69
2022-11-02T11:28:34.737Z,56.88
2022-11-02T11:31:20.211Z,58.55
2022-11-02T11:34:05.458Z,58.99
2022-11-02T11:36:50.912Z,59.12
2022-11-02T11:39:38.839Z,58.41
2022-11-02T11:42:26.942Z,59.04
2022-11-02T11:45:23.869Z,60.06
2022-11-02T11:51:37.455Z,59.01
2022-11-02T11:54:29.190Z,58.92
2022-11-02T11:57:32.496Z,58.98
2022-11-02T12:00:28.930Z,58.70
2022-11-02T12:03:14.552Z,57.74
2022-11-02T12:06:30.263Z,57.96
2022-11-02T12:09:38.900Z,58.80
2022-11-02T12:12:37.524Z,59.19
2022-11-02T12:15:37.926Z,57.32
2022-11-02T12:18:38.336Z,56.66
2022-11-02T12:21:50.131Z,57.11
2022-11-02T12:25:06.707Z,56.70
2022-11-02T12:27:57.996Z,56.40
2022-11-02T12:30:49.271Z,56.84
2022-11-02T12:33:34.749Z,55.44
2022-11-02T12:36:32.283Z,53.47
2022-11-02T12:39:46.100Z,51.40
2022-11-02T12:42:45.151Z,50.87
2022-11-02T12:45:52.143Z,48.39
2022-11-02T12:49:11.581Z,48.05
2022-11-02T12:52:24.494Z,48.86
2022-11-02T12:55:19.525Z,48.42
2022-11-02T12:58:08.049Z,46.33
2022-11-02T13:01:09.430Z,47.14
2022-11-02T13:04:01.955Z,46.48
2022-11-02T13:06:51.589Z,47.01
2022-11-02T13:09:39.105Z,47.40
2022-11-02T13:12:26.529Z,45.74
2022-11-02T13:15:17.397Z,44.16
2022-11-02T13:18:27.164Z,45.12
2022-11-02T13:21:15.581Z,46.01
2022-11-02T13:24:00.879Z,45.55
2022-11-02T13:26:57.207Z,46.53
2022-11-02T13:29:50.813Z,46.20
2022-11-02T13:32:41.844Z,46.59
2022-11-02T13:35:33.193Z,46.66
2022-11-02T13:38:40.786Z,47.11
2022-11-02T13:41:35.157Z,48.52
2022-11-02T13:44:39.456Z,47.84
2022-11-02T13:47:36.958Z,47.87
2022-11-02T13:50:24.683Z,47.28
2022-11-02T13:53:18.786Z,48.13
2022-11-02T13:56:28.389Z,47.48
2022-11-02T13:59:23.525Z,47.54
2022-11-02T14:02:16.947Z,47.47
2022-11-02T14:05:02.809Z,48.32
2022-11-02T14:07:48.087Z,47.57
2022-11-02T14:10:37.411Z,48.26
2022-11-02T14:13:51.527Z,49.96
2022-11-02T14:16:43.196Z,50.13
2022-11-02T14:19:48.881Z,50.02
2022-11-02T14:22:34.214Z,50.40
2022-11-02T14:25:19.846Z,50.54
2022-11-02T14:28:31.769Z,50.66
2022-11-02T14:31:16.835Z,50.88
2022-11-02T14:34:23.335Z,50.43
2022-11-02T14:37:23.208Z,50.58
2022-11-02T14:40:47.551Z,50.90
2022-11-02T14:44:04.028Z,51.26
2022-11-02T14:46:59.709Z,51.58
2022-11-02T14:49:56.324Z,49.96
2022-11-02T14:52:53.789Z,50.41
2022-11-02T14:55:39.604Z,49.92
2022-11-02T14:58:40.474Z,49.32
2022-11-02T15:01:25.759Z,49.33
2022-11-02T15:04:11.059Z,49.69
2022-11-02T15:06:58.999Z,50.30
2022-11-02T15:09:57.165Z,50.64
2022-11-02T15:12:45.381Z,51.67
2022-11-02T15:15:32.266Z,50.35
2022-11-02T15:18:31.653Z,49.57
2022-11-02T15:21:19.942Z,50.28
2022-11-02T15:24:19.935Z,51.22
2022-11-02T15:27:06.906Z,67.75
2022-11-02T15:29:53.088Z,51.62
2022-11-02T15:32:44.541Z,50.75
2022-11-02T15:35:38.365Z,51.37
2022-11-02T15:38:33.809Z,51.53
2022-11-02T15:41:56.180Z,52.22
2022-11-02T15:44:44.483Z,52.47
2022-11-02T15:47:44.931Z,52.31
2022-11-02T15:50:41.353Z,52.82
2022-11-02T15:54:05.932Z,53.17
2022-11-02T15:57:09.534Z,53.03
2022-11-02T16:00:18.545Z,52.90
2022-11-02T16:03:08.980Z,52.77
2022-11-02T16:05:54.171Z,53.35
2022-11-02T16:08:39.525Z,53.20
2022-11-02T16:11:24.709Z,53.58
2022-11-02T16:14:17.749Z,54.26
2022-11-02T16:17:02.918Z,53.89
2022-11-02T16:19:49.256Z,53.17
2022-11-02T16:22:34.617Z,52.53
2022-11-02T16:25:46.942Z,52.75
2022-11-02T16:28:34.674Z,53.83
2022-11-02T16:31:31.060Z,53.61
2022-11-02T16:34:26.618Z,53.84
2022-11-02T16:37:14.686Z,54.45
2022-11-02T16:40:00.198Z,54.58
2022-11-02T16:42:47.875Z,55.20
2022-11-02T16:45:43.169Z,54.80
2022-11-02T16:48:32.819Z,55.20
2022-11-02T16:51:18.852Z,55.08
2022-11-02T16:54:33.361Z,55.33
2022-11-02T16:57:23.712Z,55.27
2022-11-02T17:00:19.018Z,54.03
2022-11-02T17:03:10.412Z,54.44
2022-11-02T17:05:57.800Z,54.74
2022-11-02T17:08:44.694Z,54.64
2022-11-02T17:11:32.073Z,54.10
2022-11-02T17:14:20.793Z,55.45
2022-11-02T17:17:27.034Z,55.79
2022-11-02T17:20:15.058Z,54.99
2022-11-02T17:23:03.268Z,54.76
2022-11-02T17:25:48.887Z,54.85
2022-11-02T17:28:34.058Z,54.82
2022-11-02T17:31:25.761Z,54.95
2022-11-02T17:34:19.182Z,55.29
2022-11-02T17:37:06.434Z,55.55
2022-11-02T17:39:52.804Z,55.31
2022-11-02T17:42:57.438Z,55.52
2022-11-02T17:45:42.542Z,56.22
2022-11-02T17:48:31.086Z,56.76
2022-11-02T17:51:19.954Z,56.68
2022-11-02T17:54:05.333Z,57.32
2022-11-02T17:56:50.445Z,57.21
2022-11-02T17:59:35.891Z,57.22
2022-11-02T18:02:21.511Z,57.83
2022-11-02T18:05:19.939Z,57.56
2022-11-02T18:08:06.484Z,57.62
2022-11-02T18:10:52.543Z,58.41
2022-11-02T18:13:37.836Z,58.59
2022-11-02T18:16:23.320Z,58.26
2022-11-02T18:19:08.618Z,58.65
2022-11-02T18:21:53.798Z,59.11
2022-11-02T18:24:39.014Z,59.66
2022-11-02T18:27:27.754Z,59.44
2022-11-02T18:30:16.653Z,59.82
2022-11-02T18:33:02.761Z,60.09
2022-11-02T18:35:48.180Z,60.54
2022-11-02T18:38:33.408Z,60.50
2022-11-02T18:41:27.734Z,60.41
2022-11-02T18:44:15.617Z,60.50
2022-11-02T18:47:00.974Z,60.79
2022-11-02T18:49:46.089Z,60.36
2022-11-02T18:52:33.736Z,60.84
2022-11-02T18:55:18.968Z,60.53
2022-11-02T18:58:04.579Z,61.38
2022-11-02T19:00:49.884Z,61.42
2022-11-02T19:03:35.959Z,61.40
2022-11-02T19:06:40.082Z,61.36
2022-11-02T19:09:26.733Z,61.89
2022-11-02T19:12:16.530Z,62.29
2022-11-02T19:15:02.112Z,62.98
2022-11-02T19:17:48.028Z,62.63
2022-11-02T19:20:33.301Z,62.44
2022-11-02T19:23:18.588Z,62.67
2022-11-02T19:26:03.988Z,62.62
2022-11-02T19:28:49.214Z,63.06
2022-11-02T19:31:35.474Z,62.36
2022-11-02T19:34:20.717Z,61.91
2022-11-02T19:37:07.598Z,61.67
2022-11-02T19:39:53.075Z,61.53
2022-11-02T19:42:39.684Z,62.66
2022-11-02T19:45:24.753Z,62.25
2022-11-02T19:48:10.284Z,62.14
2022-11-02T19:50:55.577Z,62.33
2022-11-02T19:53:43.569Z,62.43
2022-11-02T19:56:31.316Z,62.59
2022-11-02T19:59:16.763Z,63.01
2022-11-02T20:02:02.421Z,63.21
2022-11-02T20:04:48.374Z,63.59
2022-11-02T20:07:33.779Z,63.37
2022-11-02T20:10:19.139Z,63.55
2022-11-02T20:13:04.460Z,63.42
2022-11-02T20:15:49.656Z,63.05
2022-11-02T20:18:36.243Z,63.50
2022-11-02T20:21:32.379Z,64.05
2022-11-02T20:24:19.535Z,64.36
2022-11-02T20:27:06.663Z,64.38
2022-11-02T20:29:51.870Z,64.95
2022-11-02T20:32:37.106Z,65.25
2022-11-02T20:35:25.496Z,64.59
2022-11-02T20:38:10.952Z,64.99
2022-11-02T20:41:07.852Z,65.07
2022-11-02T20:43:55.589Z,65.72
2022-11-02T20:46:42.480Z,65.61
2022-11-02T20:52:33.469Z,65.54
2022-11-02T20:55:18.859Z,66.22
2022-11-02T20:58:04.218Z,65.41
2022-11-02T21:00:49.708Z,65.49
2022-11-02T21:03:35.205Z,65.05
2022-11-02T21:06:20.285Z,65.60
2022-11-02T21:09:09.106Z,65.02
2022-11-02T21:12:15.702Z,65.79
2022-11-02T21:15:00.877Z,65.60
2022-11-02T21:17:46.002Z,66.07
2022-11-02T21:20:35.098Z,65.83
2022-11-02T21:23:20.478Z,66.61
2022-11-02T21:26:08.649Z,66.85
2022-11-02T21:28:53.688Z,65.92
2022-11-02T21:31:39.283Z,66.74
2022-11-02T21:34:24.418Z,66.92
2022-11-02T21:37:09.518Z,66.37
2022-11-02T21:39:55.116Z,66.68
2022-11-02T21:42:40.766Z,67.04
2022-11-02T21:45:26.432Z,67.38
2022-11-02T21:48:11.953Z,67.95
2022-11-02T21:51:01.918Z,67.34
2022-11-02T21:53:48.325Z,67.84
2022-11-02T21:56:35.801Z,68.05
2022-11-02T21:59:21.196Z,67.70
2022-11-02T22:02:06.883Z,67.05
2022-11-02T22:04:54.878Z,67.73
2022-11-02T22:08:00.152Z,67.84
2022-11-02T22:10:45.224Z,67.70
2022-11-02T22:13:34.167Z,68.13
2022-11-02T22:16:24.974Z,68.48
2022-11-02T22:19:15.202Z,68.60
2022-11-02T22:22:00.645Z,68.61
2022-11-02T22:24:45.583Z,68.26
2022-11-02T22:27:31.166Z,68.65
2022-11-02T22:30:16.605Z,68.34
2022-11-02T22:33:01.943Z,68.04
2022-11-02T22:35:49.675Z,67.63
2022-11-02T22:38:54.278Z,68.16
2022-11-02T22:41:46.853Z,68.72
2022-11-02T22:44:32.125Z,69.13
2022-11-02T22:47:17.565Z,69.08
2022-11-02T22:50:03.032Z,68.93
2022-11-02T22:52:48.049Z,69.35
2022-11-02T22:55:33.526Z,69.10
2022-11-02T22:58:19.159Z,69.50
2022-11-02T23:01:05.190Z,69.49
2022-11-02T23:03:50.832Z,69.27
2022-11-02T23:06:36.117Z,69.22
2022-11-02T23:09:21.596Z,68.65
2022-11-02T23:12:07.137Z,69.51
2022-11-02T23:14:52.113Z,69.42
2022-11-02T23:17:37.789Z,69.73
2022-11-02T23:20:23.192Z,68.78
2022-11-02T23:23:27.213Z,69.15
2022-11-02T23:26:12.476Z,69.10
2022-11-02T23:29:16.261Z,69.18
2022-11-02T23:32:20.152Z,69.55
2022-11-02T23:35:24.551Z,69.67
2022-11-02T23:38:09.688Z,69.71
2022-11-02T23:40:55.064Z,69.47
2022-11-02T23:43:40.381Z,70.27
2022-11-02T23:46:25.653Z,70.36
2022-11-02T23:49:12.250Z,70.66
2022-11-02T23:52:16.421Z,70.65
2022-11-02T23:55:20.256Z,71.03
2022-11-02T23:58:05.480Z,71.48
